Time;durP1;ratioP1;P1;durP2;ratioP2;P2;SDS_P1;SDS_P2;PMS_P1;PMS_P2;Temp;Humidity;BMP_temperature;BMP_pressure;BME280_temperature;BME280_humidity;BME280_pressure;Samples;Min_cycle;Max_cycle;Signal;HPM_P1;HPM_P2
2022/10/01 00:02:00;;;;;;;12.95;9.35;;;10.30;99.90;;;;;;5076185;28;20386;-61
2022/10/01 00:04:26;;;;;;;16.63;11.00;;;10.30;99.90;;;;;;5069842;28;20600;-61
2022/10/01 00:06:52;;;;;;;13.77;9.57;;;10.30;99.90;;;;;;5051110;28;20088;-62
2022/10/01 00:09:17;;;;;;;17.55;11.55;;;10.30;99.90;;;;;;5074331;28;20039;-61
2022/10/01 00:11:43;;;;;;;15.95;11.07;;;10.30;99.90;;;;;;5072517;28;20527;-61
2022/10/01 00:14:09;;;;;;;16.00;11.52;;;10.30;99.90;;;;;;5075441;28;20106;-62
2022/10/01 00:16:34;;;;;;;21.02;13.18;;;10.20;99.90;;;;;;5076741;28;20067;-62
2022/10/01 00:19:00;;;;;;;20.90;12.98;;;10.20;99.90;;;;;;5075747;28;20157;-60
2022/10/01 00:21:31;;;;;;;18.10;11.73;;;10.30;99.90;;;;;;5083376;28;20097;-61
2022/10/01 00:24:03;;;;;;;21.27;12.55;;;10.20;99.90;;;;;;5086153;28;20384;-60
2022/10/01 00:26:31;;;;;;;20.50;12.82;;;10.20;99.90;;;;;;5074199;28;20078;-62
2022/10/01 00:29:00;;;;;;;21.17;12.27;;;10.10;99.90;;;;;;5077921;28;20036;-60
2022/10/01 00:31:26;;;;;;;20.83;12.90;;;10.20;99.90;;;;;;5046846;28;20459;-63
2022/10/01 00:33:57;;;;;;;19.75;12.98;;;10.10;99.90;;;;;;5062395;28;20036;-60
2022/10/01 00:36:23;;;;;;;;;;;10.20;99.90;;;;;;5078201;28;20028;-61
2022/10/01 00:38:49;;;;;;;21.45;13.48;;;10.20;99.90;;;;;;5085998;28;19916;-62
2022/10/01 00:41:15;;;;;;;19.52;13.85;;;10.20;99.90;;;;;;5080117;28;20050;-61
2022/10/01 00:43:54;;;;;;;19.85;13.88;;;10.20;99.90;;;;;;5061435;28;20115;-61
2022/10/01 00:46:40;;;;;;;20.17;12.75;;;10.20;99.90;;;;;;5074907;28;20394;-61
2022/10/01 00:49:10;;;;;;;21.25;13.57;;;10.10;99.90;;;;;;5073226;28;20462;-61
2022/10/01 00:51:44;;;;;;;18.05;12.15;;;10.10;99.90;;;;;;5074473;28;20047;-62
2022/10/01 00:54:15;;;;;;;19.48;13.40;;;10.20;99.90;;;;;;5077276;28;20059;-65
2022/10/01 00:56:41;;;;;;;18.23;13.27;;;10.20;99.90;;;;;;5071317;28;20060;-62
2022/10/01 00:59:08;;;;;;;20.52;12.80;;;10.10;99.90;;;;;;5080156;28;20040;-61
2022/10/01 01:01:36;;;;;;;20.88;13.00;;;10.10;99.90;;;;;;5079971;28;20059;-60
2022/10/01 01:04:02;;;;;;;20.45;12.90;;;10.20;99.90;;;;;;5075787;28;20063;-62
2022/10/01 01:06:28;;;;;;;26.80;15.48;;;10.10;99.90;;;;;;5076551;28;22472;-61
2022/10/01 01:08:55;;;;;;;24.55;14.38;;;10.20;99.90;;;;;;5088653;28;20028;-61
2022/10/01 01:12:03;;;;;;;21.15;14.45;;;10.10;99.90;;;;;;5085713;28;20131;-61
2022/10/01 01:14:56;;;;;;;24.10;14.30;;;10.20;99.90;;;;;;5039900;28;20052;-61
2022/10/01 01:17:33;;;;;;;20.52;13.13;;;10.20;99.90;;;;;;5063944;28;20101;-62
2022/10/01 01:20:20;;;;;;;21.48;14.45;;;10.10;99.90;;;;;;5089810;28;20130;-63
2022/10/01 01:23:15;;;;;;;22.83;13.88;;;10.20;99.90;;;;;;5082211;28;20460;-62
2022/10/01 01:25:47;;;;;;;20.98;14.27;;;10.20;99.90;;;;;;5060850;28;20048;-63
2022/10/01 01:28:30;;;;;;;22.88;14.68;;;10.20;99.90;;;;;;5080453;28;20105;-64
2022/10/01 01:31:00;;;;;;;24.48;15.25;;;10.20;99.90;;;;;;5085071;28;20515;-63
2022/10/01 01:33:29;;;;;;;26.73;16.08;;;10.10;99.90;;;;;;5079438;28;20847;-62
2022/10/01 01:36:03;;;;;;;22.88;14.65;;;10.10;99.90;;;;;;5063662;28;20043;-62
2022/10/01 01:38:37;;;;;;;28.08;15.95;;;10.20;99.90;;;;;;5059593;28;20062;-64
2022/10/01 01:41:05;;;;;;;32.80;16.75;;;10.20;99.90;;;;;;5077491;28;20040;-63
2022/10/01 01:43:35;;;;;;;26.92;15.18;;;10.00;99.90;;;;;;5078519;28;20348;-65
2022/10/01 01:46:03;;;;;;;24.25;15.60;;;10.20;99.90;;;;;;5080793;28;20073;-63
2022/10/01 01:48:31;;;;;;;26.67;15.93;;;10.10;99.90;;;;;;5082940;28;20080;-63
2022/10/01 01:51:04;;;;;;;24.45;14.50;;;10.10;99.90;;;;;;5087708;28;20042;-64
2022/10/01 01:53:31;;;;;;;29.33;16.05;;;10.20;99.90;;;;;;5085804;28;20044;-64
2022/10/01 01:55:59;;;;;;;23.73;14.65;;;10.10;99.90;;;;;;5083468;28;20064;-64
2022/10/01 01:58:26;;;;;;;23.05;14.27;;;10.10;99.90;;;;;;5066298;28;20048;-63
2022/10/01 02:00:52;;;;;;;25.85;15.10;;;10.00;99.90;;;;;;5087152;28;20040;-64
2022/10/01 02:03:21;;;;;;;25.90;15.82;;;10.20;99.90;;;;;;5083126;28;20042;-64
2022/10/01 02:06:07;;;;;;;21.88;14.98;;;10.20;99.90;;;;;;5068649;28;20384;-65
2022/10/01 02:08:50;;;;;;;23.63;15.05;;;10.10;99.90;;;;;;5089080;28;20130;-64
2022/10/01 02:11:24;;;;;;;22.92;14.68;;;10.10;99.90;;;;;;5085979;28;20501;-65
2022/10/01 02:14:02;;;;;;;23.40;14.38;;;10.10;99.90;;;;;;5067303;28;20460;-63
2022/10/01 02:16:49;;;;;;;25.73;14.38;;;10.00;99.90;;;;;;5086873;28;20044;-63
2022/10/01 02:19:48;;;;;;;23.50;14.60;;;10.00;99.90;;;;;;5085938;28;20040;-63
2022/10/01 02:22:52;;;;;;;27.33;14.23;;;10.00;99.90;;;;;;5045742;28;20059;-64
2022/10/01 02:25:25;;;;;;;26.20;14.48;;;10.20;99.90;;;;;;5063141;28;20075;-61
2022/10/01 02:27:59;;;;;;;27.88;14.95;;;10.10;99.90;;;;;;5062056;28;20167;-63
2022/10/01 02:30:26;;;;;;;27.77;15.43;;;10.00;99.90;;;;;;5069007;28;20462;-63
2022/10/01 02:32:53;;;;;;;27.73;15.15;;;10.10;99.90;;;;;;5087037;28;20646;-63
2022/10/01 02:35:20;;;;;;;24.20;14.60;;;10.10;99.90;;;;;;5060668;28;20040;-64
2022/10/01 02:37:49;;;;;;;23.00;15.43;;;10.00;99.90;;;;;;5061457;28;20055;-62
2022/10/01 02:40:20;;;;;;;21.30;13.50;;;10.00;99.90;;;;;;5087820;28;20055;-63
2022/10/01 02:42:50;;;;;;;25.95;14.50;;;10.10;99.90;;;;;;5081978;28;20477;-62
2022/10/01 02:45:21;;;;;;;24.70;13.60;;;10.00;99.90;;;;;;5087686;28;20145;-63
2022/10/01 02:47:52;;;;;;;26.88;14.65;;;10.20;99.90;;;;;;5064751;28;20374;-63
2022/10/01 02:50:19;;;;;;;21.13;13.80;;;10.00;99.90;;;;;;5088600;28;20043;-64
2022/10/01 02:52:50;;;;;;;27.25;15.38;;;10.20;99.90;;;;;;5051907;28;20040;-62
2022/10/01 02:55:34;;;;;;;25.02;14.10;;;10.20;99.90;;;;;;5067315;28;20625;-63
2022/10/01 02:58:00;;;;;;;20.92;12.13;;;10.00;99.90;;;;;;5062164;28;20101;-63
2022/10/01 03:00:26;;;;;;;22.25;12.90;;;10.20;99.90;;;;;;5082690;28;20447;-64
2022/10/01 03:02:51;;;;;;;22.60;13.75;;;10.30;99.90;;;;;;5060805;28;20063;-63
2022/10/01 03:05:19;;;;;;;23.25;14.02;;;10.30;99.90;;;;;;5084999;28;20470;-65
2022/10/01 03:07:45;;;;;;;20.67;12.85;;;10.20;99.90;;;;;;5064450;28;20048;-63
2022/10/01 03:10:11;;;;;;;23.65;13.65;;;10.30;99.90;;;;;;5078938;28;20043;-64
2022/10/01 03:12:42;;;;;;;23.25;13.00;;;10.30;99.90;;;;;;5063830;28;20040;-64
2022/10/01 03:15:09;;;;;;;22.55;13.02;;;10.20;99.90;;;;;;5087650;28;20039;-63
2022/10/01 03:17:36;;;;;;;21.75;13.55;;;10.30;99.90;;;;;;5068630;28;20054;-64
2022/10/01 03:20:02;;;;;;;22.48;12.48;;;10.30;99.90;;;;;;5073062;28;20048;-64
2022/10/01 03:22:27;;;;;;;20.05;10.98;;;10.20;99.90;;;;;;5061872;28;20105;-63
2022/10/01 03:24:53;;;;;;;17.30;10.93;;;10.30;99.90;;;;;;5081430;28;20133;-64
2022/10/01 03:27:22;;;;;;;16.58;10.82;;;10.30;99.90;;;;;;5071028;28;20125;-62
2022/10/01 03:29:48;;;;;;;14.52;10.27;;;10.30;99.90;;;;;;5064930;28;20048;-64
2022/10/01 03:32:14;;;;;;;21.60;11.57;;;10.40;99.90;;;;;;5080709;28;20040;-65
2022/10/01 03:34:39;;;;;;;21.30;12.07;;;10.40;99.90;;;;;;5070287;28;20501;-65
2022/10/01 03:37:05;;;;;;;20.15;11.02;;;10.20;99.90;;;;;;5065548;28;20036;-65
2022/10/01 03:39:31;;;;;;;17.80;10.60;;;10.40;99.90;;;;;;5068970;28;20051;-63
2022/10/01 03:41:57;;;;;;;18.42;10.98;;;10.30;99.90;;;;;;5052087;28;20058;-64
2022/10/01 03:44:22;;;;;;;14.45;9.93;;;10.40;99.90;;;;;;5056127;28;20443;-63
2022/10/01 03:46:48;;;;;;;20.52;10.77;;;10.30;99.90;;;;;;5078516;28;22281;-63
2022/10/01 03:49:14;;;;;;;15.23;9.38;;;10.40;99.90;;;;;;5082106;28;20479;-64
2022/10/01 03:51:40;;;;;;;15.93;9.93;;;10.50;99.90;;;;;;5083875;28;20361;-63
2022/10/01 03:54:07;;;;;;;14.20;9.10;;;10.30;99.90;;;;;;5080119;28;20084;-64
2022/10/01 03:56:33;;;;;;;15.95;9.30;;;10.50;99.90;;;;;;5078023;28;20489;-64
2022/10/01 03:58:59;;;;;;;16.58;9.10;;;10.50;99.90;;;;;;5084603;28;20048;-64
2022/10/01 04:01:26;;;;;;;14.27;8.82;;;10.30;99.90;;;;;;5081905;28;20096;-63
2022/10/01 04:03:52;;;;;;;15.07;9.15;;;10.30;99.90;;;;;;5058708;28;20047;-64
2022/10/01 04:06:17;;;;;;;13.32;8.23;;;10.40;99.90;;;;;;5080344;28;20032;-65
2022/10/01 04:08:43;;;;;;;14.15;8.93;;;10.50;99.90;;;;;;5084757;28;20075;-65
2022/10/01 04:11:10;;;;;;;13.95;8.55;;;10.50;99.90;;;;;;5082646;28;20047;-65
2022/10/01 04:13:35;;;;;;;10.82;7.57;;;10.30;99.90;;;;;;5071772;28;20066;-63
2022/10/01 04:16:02;;;;;;;11.63;7.68;;;10.30;99.90;;;;;;5076845;28;20063;-64
2022/10/01 04:18:28;;;;;;;10.02;6.72;;;10.30;99.90;;;;;;5066457;28;20131;-63
2022/10/01 04:20:53;;;;;;;11.15;6.70;;;10.50;99.90;;;;;;5069756;28;20039;-64
2022/10/01 04:23:19;;;;;;;10.95;7.47;;;10.50;99.90;;;;;;5081120;28;20035;-64
2022/10/01 04:25:45;;;;;;;11.57;7.10;;;10.50;99.90;;;;;;5079965;28;20032;-65
2022/10/01 04:28:11;;;;;;;10.02;6.38;;;10.40;99.90;;;;;;5061662;28;20039;-63
2022/10/01 04:30:41;;;;;;;13.95;8.18;;;10.40;99.90;;;;;;5085195;28;20044;-64
2022/10/01 04:33:08;;;;;;;12.38;7.53;;;10.60;99.90;;;;;;5085875;28;20389;-65
2022/10/01 04:35:33;;;;;;;12.32;7.90;;;10.60;99.90;;;;;;5079157;28;20070;-65
2022/10/01 04:38:02;;;;;;;13.63;7.68;;;10.40;99.90;;;;;;5080512;28;20039;-64
2022/10/01 04:40:33;;;;;;;11.02;6.97;;;10.40;99.90;;;;;;5050397;28;20140;-64
2022/10/01 04:42:59;;;;;;;10.05;6.82;;;10.50;99.90;;;;;;5083354;28;20042;-63
2022/10/01 04:45:24;;;;;;;14.50;7.65;;;10.40;99.90;;;;;;5081162;28;20039;-63
2022/10/01 04:47:52;;;;;;;12.80;7.75;;;10.40;99.90;;;;;;5079262;28;20047;-65
2022/10/01 04:50:18;;;;;;;13.98;8.20;;;10.50;99.90;;;;;;5065025;28;20036;-64
2022/10/01 04:52:45;;;;;;;9.13;6.80;;;10.40;99.90;;;;;;5087822;28;20036;-64
2022/10/01 04:55:11;;;;;;;11.27;7.28;;;10.40;99.90;;;;;;5082548;28;20047;-64
2022/10/01 04:57:40;;;;;;;10.88;6.78;;;10.50;99.90;;;;;;5064928;28;20057;-64
2022/10/01 05:00:08;;;;;;;16.02;7.82;;;10.70;99.90;;;;;;5083780;28;20123;-64
2022/10/01 05:02:34;;;;;;;11.88;6.85;;;10.60;99.90;;;;;;5064962;28;20147;-64
2022/10/01 05:05:02;;;;;;;11.35;7.15;;;10.70;99.90;;;;;;5064395;28;20119;-64
2022/10/01 05:07:31;;;;;;;11.10;7.07;;;10.70;99.90;;;;;;5087255;28;20040;-64
2022/10/01 05:09:57;;;;;;;9.75;6.28;;;10.50;99.90;;;;;;5083308;28;20089;-64
2022/10/01 05:12:24;;;;;;;11.38;6.88;;;10.80;99.90;;;;;;5075614;28;20357;-63
2022/10/01 05:14:53;;;;;;;11.95;7.65;;;10.60;99.90;;;;;;5060545;28;20101;-64
2022/10/01 05:17:19;;;;;;;10.17;6.77;;;10.60;99.90;;;;;;5061066;28;20055;-64
2022/10/01 05:19:46;;;;;;;14.52;7.72;;;10.70;99.90;;;;;;5087286;28;20036;-65
2022/10/01 05:22:12;;;;;;;10.32;6.90;;;10.80;99.90;;;;;;5067925;28;20033;-64
2022/10/01 05:24:38;;;;;;;11.38;6.95;;;10.70;99.90;;;;;;5085905;28;20320;-64
2022/10/01 05:27:05;;;;;;;14.13;7.00;;;10.70;99.90;;;;;;5085753;28;20123;-64
2022/10/01 05:29:32;;;;;;;12.02;7.05;;;10.70;99.90;;;;;;5089147;28;20115;-65
2022/10/01 05:31:57;;;;;;;9.07;6.32;;;10.60;99.90;;;;;;5085837;28;20169;-64
2022/10/01 05:34:23;;;;;;;10.57;6.57;;;10.90;99.90;;;;;;5065989;28;20131;-65
2022/10/01 05:36:48;;;;;;;10.85;7.20;;;10.70;99.90;;;;;;5072309;28;20496;-64
2022/10/01 05:39:14;;;;;;;16.33;8.63;;;10.90;99.90;;;;;;5068714;28;20435;-64
2022/10/01 05:41:40;;;;;;;11.48;7.82;;;11.00;99.90;;;;;;5062487;28;20040;-64
2022/10/01 05:44:06;;;;;;;12.52;8.10;;;11.00;99.90;;;;;;5075405;28;20115;-64
2022/10/01 05:46:32;;;;;;;13.07;8.35;;;11.00;99.90;;;;;;5080235;28;20066;-64
2022/10/01 05:48:57;;;;;;;13.68;8.68;;;10.90;99.90;;;;;;5067802;28;20440;-65
2022/10/01 05:51:24;;;;;;;14.32;8.80;;;11.10;99.90;;;;;;5070950;28;20046;-65
2022/10/01 05:53:49;;;;;;;14.18;8.98;;;11.00;99.90;;;;;;5068782;28;20044;-64
2022/10/01 05:56:15;;;;;;;12.88;8.75;;;10.90;99.90;;;;;;5066198;28;20056;-65
2022/10/01 05:58:41;;;;;;;15.18;10.23;;;11.00;99.90;;;;;;5078470;28;20041;-64
2022/10/01 06:01:06;;;;;;;18.48;9.85;;;11.00;99.90;;;;;;5057057;28;20456;-64
2022/10/01 06:03:32;;;;;;;18.15;10.23;;;10.90;99.90;;;;;;5078765;28;20036;-63
2022/10/01 06:05:57;;;;;;;13.40;9.05;;;10.90;99.90;;;;;;5084086;28;20040;-64
2022/10/01 06:08:23;;;;;;;15.20;9.95;;;11.20;99.90;;;;;;5063094;28;20040;-64
2022/10/01 06:10:49;;;;;;;18.27;10.63;;;11.10;99.90;;;;;;5075775;28;20041;-65
2022/10/01 06:13:17;;;;;;;18.17;10.73;;;11.20;99.90;;;;;;5079447;28;20032;-64
2022/10/01 06:15:44;;;;;;;22.25;11.90;;;11.00;99.90;;;;;;5074459;28;20451;-64
2022/10/01 06:18:12;;;;;;;19.45;11.50;;;11.10;99.90;;;;;;5078588;28;20043;-64
2022/10/01 06:20:39;;;;;;;17.00;11.30;;;11.00;99.90;;;;;;5072860;28;20043;-64
2022/10/01 06:23:10;;;;;;;15.73;10.80;;;11.20;99.90;;;;;;5082397;28;20036;-63
2022/10/01 06:25:37;;;;;;;17.70;11.38;;;11.10;99.90;;;;;;5082734;28;20132;-63
2022/10/01 06:28:04;;;;;;;15.85;11.15;;;11.30;99.90;;;;;;5075759;28;20036;-63
2022/10/01 06:30:32;;;;;;;21.08;12.55;;;11.40;99.90;;;;;;5071472;28;20043;-64
2022/10/01 06:33:10;;;;;;;18.83;11.88;;;11.50;99.90;;;;;;5067926;28;20372;-64
2022/10/01 06:35:40;;;;;;;20.92;12.32;;;11.30;99.90;;;;;;5069543;28;20036;-69
2022/10/01 06:38:07;;;;;;;20.42;12.02;;;11.50;99.90;;;;;;5069461;28;20044;-64
2022/10/01 06:40:32;;;;;;;18.45;12.18;;;11.40;99.90;;;;;;5069196;28;20044;-64
2022/10/01 06:42:58;;;;;;;20.08;12.35;;;11.40;99.90;;;;;;5067088;28;20048;-64
2022/10/01 06:45:24;;;;;;;19.75;12.40;;;11.40;99.90;;;;;;5072370;28;20480;-64
2022/10/01 06:47:54;;;;;;;32.50;15.43;;;11.30;99.90;;;;;;5068603;28;20189;-64
2022/10/01 06:50:21;;;;;;;22.33;13.20;;;11.30;99.90;;;;;;5069330;28;20060;-64
2022/10/01 06:52:50;;;;;;;23.67;13.30;;;11.30;99.90;;;;;;5068063;28;20051;-64
2022/10/01 06:55:19;;;;;;;22.13;13.68;;;11.60;99.90;;;;;;5050793;28;20404;-64
2022/10/01 06:57:46;;;;;;;25.25;15.60;;;12.00;99.90;;;;;;5046775;28;20083;-64
2022/10/01 07:00:13;;;;;;;26.67;15.35;;;12.00;99.90;;;;;;5074148;28;20094;-63
2022/10/01 07:02:39;;;;;;;24.35;14.95;;;12.20;99.90;;;;;;5051633;28;20049;-64
2022/10/01 07:05:06;;;;;;;32.42;15.50;;;12.50;99.90;;;;;;5071944;28;20646;-63
2022/10/01 07:07:34;;;;;;;27.58;16.05;;;12.20;99.90;;;;;;5070890;28;20036;-63
2022/10/01 07:10:01;;;;;;;23.75;14.55;;;12.40;99.90;;;;;;5069480;28;20133;-63
2022/10/01 07:12:27;;;;;;;31.17;16.20;;;12.40;99.90;;;;;;5057714;28;20329;-64
2022/10/01 07:14:53;;;;;;;30.08;15.32;;;12.30;99.90;;;;;;5080022;28;20104;-64
2022/10/01 07:17:19;;;;;;;29.77;16.25;;;12.10;99.90;;;;;;5084113;28;20036;-64
2022/10/01 07:19:45;;;;;;;37.65;17.27;;;12.20;99.90;;;;;;5070207;28;20048;-63
2022/10/01 07:22:11;;;;;;;32.20;17.25;;;12.40;99.90;;;;;;5055783;28;20145;-63
2022/10/01 07:24:36;;;;;;;29.17;15.65;;;12.50;99.90;;;;;;5050435;28;20044;-63
2022/10/01 07:27:02;;;;;;;29.25;15.60;;;12.20;99.90;;;;;;5069628;28;20105;-63
2022/10/01 07:29:29;;;;;;;67.38;18.08;;;12.30;99.90;;;;;;5072466;28;20178;-63
2022/10/01 07:31:59;;;;;;;32.42;15.02;;;12.20;99.90;;;;;;5070050;28;20044;-63
2022/10/01 07:34:26;;;;;;;24.10;13.85;;;12.20;99.90;;;;;;5058220;28;20170;-63
2022/10/01 07:36:53;;;;;;;37.75;15.15;;;12.10;99.90;;;;;;5051667;28;20051;-64
2022/10/01 07:39:19;;;;;;;23.65;13.40;;;12.00;99.90;;;;;;5054913;28;20054;-63
2022/10/01 07:41:45;;;;;;;34.13;14.90;;;12.00;99.90;;;;;;5072809;28;20249;-63
2022/10/01 07:44:10;;;;;;;25.73;14.38;;;12.20;99.90;;;;;;5062770;28;20645;-63
2022/10/01 07:46:39;;;;;;;39.17;15.68;;;12.40;99.90;;;;;;5082936;28;20028;-64
2022/10/01 07:49:05;;;;;;;34.38;15.25;;;12.40;99.90;;;;;;5070931;28;20036;-63
2022/10/01 07:51:31;;;;;;;23.15;13.85;;;12.40;99.90;;;;;;5090364;28;20047;-63
2022/10/01 07:53:57;;;;;;;36.42;16.13;;;12.40;99.90;;;;;;5071671;28;20039;-63
2022/10/01 07:56:24;;;;;;;39.78;18.08;;;12.40;99.90;;;;;;5086925;28;20056;-63
2022/10/01 07:58:54;;;;;;;20.45;13.38;;;12.40;99.90;;;;;;5069580;28;20140;-63
2022/10/01 08:01:19;;;;;;;35.97;17.52;;;12.60;99.90;;;;;;5087042;28;20040;-63
2022/10/01 08:03:48;;;;;;;32.22;15.93;;;12.50;99.90;;;;;;5091187;28;20043;-63
2022/10/01 08:06:14;;;;;;;19.65;12.95;;;12.50;99.90;;;;;;5090803;28;20047;-63
2022/10/01 08:08:39;;;;;;;20.45;13.73;;;12.80;99.90;;;;;;5071984;28;20036;-63
2022/10/01 08:11:06;;;;;;;26.02;14.65;;;12.80;99.90;;;;;;5088584;28;20097;-63
2022/10/01 08:13:33;;;;;;;29.65;15.18;;;12.50;99.90;;;;;;5087395;28;20345;-63
2022/10/01 08:16:02;;;;;;;20.30;11.23;;;12.70;99.90;;;;;;5088149;28;20037;-63
2022/10/01 08:18:28;;;;;;;32.30;15.38;;;12.60;99.90;;;;;;5070196;28;20047;-63
2022/10/01 08:20:53;;;;;;;18.50;12.73;;;12.70;99.90;;;;;;5089014;28;20036;-63
2022/10/01 08:23:20;;;;;;;21.10;12.43;;;13.20;99.90;;;;;;5066030;28;20114;-63
2022/10/01 08:25:46;;;;;;;26.55;12.45;;;13.30;99.90;;;;;;5088291;28;20679;-64
2022/10/01 08:28:13;;;;;;;24.90;12.52;;;13.10;99.90;;;;;;5065425;28;20123;-64
2022/10/01 08:30:40;;;;;;;15.32;10.50;;;13.40;99.90;;;;;;5087315;28;20165;-64
2022/10/01 08:33:08;;;;;;;17.52;9.82;;;13.20;99.90;;;;;;5067957;28;20039;-63
2022/10/01 08:35:37;;;;;;;16.55;9.88;;;13.40;99.90;;;;;;5086404;28;20039;-64
2022/10/01 08:38:04;;;;;;;14.73;9.93;;;13.70;99.90;;;;;;5084752;28;20527;-64
2022/10/01 08:40:36;;;;;;;20.88;9.57;;;13.50;99.90;;;;;;5088944;28;20036;-64
2022/10/01 08:43:05;;;;;;;21.02;10.63;;;13.60;99.90;;;;;;5080950;28;20044;-64
2022/10/01 08:45:31;;;;;;;15.18;10.75;;;13.60;99.90;;;;;;5088352;28;20036;-64
2022/10/01 08:48:04;;;;;;;17.30;8.32;;;13.80;99.90;;;;;;5086020;28;20036;-64
2022/10/01 08:50:52;;;;;;;17.05;8.88;;;13.70;99.90;;;;;;5088079;28;20047;-64
2022/10/01 08:53:49;;;;;;;15.27;7.47;;;14.00;99.90;;;;;;5088114;28;20044;-63
2022/10/01 08:56:30;;;;;;;18.83;9.00;;;14.10;99.90;;;;;;5088735;28;20079;-63
2022/10/01 08:58:58;;;;;;;15.85;7.50;;;14.30;99.90;;;;;;5089441;28;20150;-64
2022/10/01 09:01:25;;;;;;;16.70;7.03;;;14.20;99.90;;;;;;5070553;28;20040;-63
2022/10/01 09:03:52;;;;;;;16.95;6.65;;;14.50;99.90;;;;;;5090200;28;20143;-64
2022/10/01 09:06:27;;;;;;;17.58;7.10;;;14.30;99.90;;;;;;5089390;28;20054;-63
2022/10/01 09:09:34;;;;;;;11.98;5.65;;;14.20;99.90;;;;;;5088917;28;20086;-63
2022/10/01 09:12:38;;;;;;;13.68;5.25;;;14.60;99.90;;;;;;5066576;28;20340;-63
2022/10/01 09:15:14;;;;;;;15.10;5.15;;;14.40;99.90;;;;;;5075210;28;20044;-63
2022/10/01 09:17:53;;;;;;;12.43;5.30;;;14.20;99.90;;;;;;5069708;28;20052;-63
2022/10/01 09:20:26;;;;;;;17.42;4.60;;;14.30;99.90;;;;;;5071583;28;20048;-63
2022/10/01 09:23:07;;;;;;;12.85;3.50;;;14.50;99.90;;;;;;5087317;28;20099;-63
2022/10/01 09:25:36;;;;;;;11.20;3.65;;;14.80;99.90;;;;;;5088390;28;20480;-63
2022/10/01 09:28:18;;;;;;;17.88;4.20;;;14.80;99.90;;;;;;5084195;28;20444;-63
2022/10/01 09:30:55;;;;;;;12.70;3.38;;;14.80;99.90;;;;;;5091852;28;20037;-64
2022/10/01 09:33:23;;;;;;;8.45;2.92;;;14.90;99.90;;;;;;5071980;28;20051;-64
2022/10/01 09:36:13;;;;;;;12.93;3.22;;;14.80;99.90;;;;;;5091970;28;20101;-64
2022/10/01 09:38:42;;;;;;;13.18;3.05;;;14.70;99.90;;;;;;5090142;28;20055;-64
2022/10/01 09:41:10;;;;;;;18.88;3.38;;;14.60;99.90;;;;;;5070137;28;20043;-64
2022/10/01 09:43:38;;;;;;;12.68;3.03;;;14.60;99.90;;;;;;5088641;28;20036;-63
2022/10/01 09:46:12;;;;;;;7.78;3.15;;;14.80;99.90;;;;;;5091074;28;20032;-63
2022/10/01 09:48:45;;;;;;;9.60;2.78;;;14.50;99.90;;;;;;5078117;28;20042;-64
2022/10/01 09:51:16;;;;;;;12.82;3.45;;;14.90;99.90;;;;;;5089891;28;20051;-63
2022/10/01 09:56:24;;;;;;;12.32;2.97;;;15.00;99.90;;;;;;4214914;22;20121;-61
2022/10/01 09:58:55;;;;;;;11.07;2.33;;;14.90;99.90;;;;;;5089576;28;20354;-61
2022/10/01 10:01:45;;;;;;;9.40;2.13;;;14.70;99.90;;;;;;5090465;28;20039;-61
2022/10/01 10:04:16;;;;;;;5.10;2.28;;;14.80;99.90;;;;;;5091629;28;20055;-61
2022/10/01 10:06:42;;;;;;;9.13;2.00;;;14.60;99.90;;;;;;5091208;28;20040;-61
2022/10/01 10:09:15;;;;;;;11.23;2.30;;;14.50;99.90;;;;;;5092634;28;20036;-61
2022/10/01 10:11:41;;;;;;;6.97;1.75;;;14.60;99.90;;;;;;5069546;28;20386;-60
2022/10/01 10:14:27;;;;;;;7.30;2.08;;;14.60;99.90;;;;;;5091896;28;20028;-61
2022/10/01 10:16:53;;;;;;;7.20;1.63;;;14.80;99.90;;;;;;5086610;28;20059;-61
2022/10/01 10:19:29;;;;;;;6.45;1.83;;;14.50;99.90;;;;;;5091439;28;20198;-62
2022/10/01 10:22:08;;;;;;;3.25;1.20;;;14.40;99.90;;;;;;5072181;28;20123;-61
2022/10/01 10:24:34;;;;;;;6.00;1.40;;;14.50;99.90;;;;;;5092589;28;20534;-62
2022/10/01 10:27:06;;;;;;;6.93;1.40;;;14.20;99.90;;;;;;5087642;28;20064;-61
2022/10/01 10:29:36;;;;;;;6.72;1.50;;;14.30;99.90;;;;;;5092132;28;20054;-61
2022/10/01 10:32:06;;;;;;;7.35;1.50;;;14.20;99.90;;;;;;5088749;28;20115;-62
2022/10/01 10:34:32;;;;;;;5.03;1.27;;;14.30;99.90;;;;;;5076749;28;20039;-62
2022/10/01 10:37:04;;;;;;;5.88;1.17;;;14.00;99.90;;;;;;5074099;28;20055;-61
2022/10/01 10:39:36;;;;;;;26.38;2.63;;;14.20;99.90;;;;;;5089504;28;20048;-60
2022/10/01 10:42:03;;;;;;;9.18;1.95;;;13.70;99.90;;;;;;5088512;28;20043;-62
2022/10/01 10:44:35;;;;;;;9.63;1.83;;;13.50;99.90;;;;;;5092052;28;20678;-62
2022/10/01 10:47:05;;;;;;;11.70;2.03;;;13.50;99.90;;;;;;5072439;28;20143;-63
2022/10/01 10:49:53;;;;;;;9.60;1.60;;;13.50;99.90;;;;;;5089393;28;20079;-63
2022/10/01 10:52:34;;;;;;;6.57;1.42;;;13.20;99.90;;;;;;5068002;28;20047;-62
2022/10/01 10:55:17;;;;;;;10.82;2.05;;;13.50;99.90;;;;;;5090257;28;20413;-62
2022/10/01 10:57:43;;;;;;;38.25;4.13;;;13.20;99.90;;;;;;5068923;28;20059;-62
2022/10/01 11:00:17;;;;;;;14.98;2.90;;;13.30;99.90;;;;;;5074128;28;20039;-61
2022/10/01 11:03:04;;;;;;;7.13;1.95;;;13.30;99.90;;;;;;5089229;28;20040;-61
2022/10/01 11:05:32;;;;;;;17.20;2.50;;;13.20;99.90;;;;;;5091146;28;20032;-61
2022/10/01 11:08:04;;;;;;;13.32;3.17;;;12.90;99.90;;;;;;5089721;28;20123;-61
2022/10/01 11:10:51;;;;;;;15.63;4.35;;;13.20;99.90;;;;;;5090203;28;20206;-62
2022/10/01 11:13:46;;;;;;;11.13;3.20;;;12.90;99.90;;;;;;5083237;28;20043;-61
2022/10/01 11:16:30;;;;;;;9.63;2.80;;;13.00;99.90;;;;;;5071148;28;20068;-62
2022/10/01 11:19:17;;;;;;;5.30;1.90;;;13.40;99.90;;;;;;5089012;28;20068;-62
2022/10/01 11:22:01;;;;;;;6.22;2.10;;;13.20;99.90;;;;;;5089849;28;20051;-62
2022/10/01 11:25:02;;;;;;;8.85;2.50;;;13.20;99.90;;;;;;5077539;28;20028;-62
2022/10/01 11:28:02;;;;;;;8.05;1.70;;;13.30;99.90;;;;;;5064738;28;20138;-63
2022/10/01 11:30:37;;;;;;;9.00;2.70;;;13.30;99.90;;;;;;5071651;28;20118;-63
2022/10/01 11:33:12;;;;;;;7.50;2.08;;;13.80;99.90;;;;;;5088650;28;20093;-62
2022/10/01 11:36:04;;;;;;;17.40;3.78;;;13.80;99.90;;;;;;5087434;28;20126;-62
2022/10/01 11:38:43;;;;;;;10.30;2.53;;;13.90;99.90;;;;;;5040654;28;20040;-62
2022/10/01 11:41:17;;;;;;;8.93;2.50;;;13.80;99.90;;;;;;5086088;28;20447;-62
2022/10/01 11:43:54;;;;;;;10.38;2.30;;;13.50;99.90;;;;;;5066229;28;20055;-62
2022/10/01 11:46:47;;;;;;;9.18;2.15;;;13.40;99.90;;;;;;5089272;28;20067;-62
2022/10/01 11:49:41;;;;;;;10.60;2.40;;;13.70;99.90;;;;;;5077416;28;20059;-62
2022/10/01 11:52:25;;;;;;;7.85;2.20;;;13.70;99.90;;;;;;5087311;28;20036;-62
2022/10/01 12:01:15;;;;;;;9.48;2.20;;;14.10;99.90;;;;;;5089264;28;20044;-62
2022/10/01 12:03:52;;;;;;;8.82;2.45;;;14.00;99.90;;;;;;5089189;28;20028;-62
2022/10/01 12:06:33;;;;;;;9.38;2.17;;;13.80;99.90;;;;;;5087859;28;20089;-62
2022/10/01 12:09:03;;;;;;;;;;;14.00;99.90;;;;;;5089092;28;20074;-62
2022/10/01 12:12:02;;;;;;;7.50;2.38;;;13.90;99.90;;;;;;5076124;28;19915;-62
2022/10/01 12:14:52;;;;;;;6.65;2.08;;;14.40;99.90;;;;;;5073335;28;21735;-62
2022/10/01 12:17:32;;;;;;;11.27;2.40;;;14.30;99.90;;;;;;5087411;28;20059;-61
2022/10/01 12:20:00;;;;;;;9.63;2.55;;;14.30;99.90;;;;;;5082838;28;20043;-63
2022/10/01 12:22:31;;;;;;;7.25;2.42;;;14.60;99.90;;;;;;5084563;28;20155;-62
2022/10/01 12:24:57;;;;;;;8.82;2.15;;;14.60;99.90;;;;;;5087047;28;20424;-62
2022/10/01 12:27:40;;;;;;;10.27;2.70;;;14.60;99.90;;;;;;5082069;28;20147;-62
2022/10/01 12:30:15;;;;;;;11.25;2.50;;;14.70;99.90;;;;;;5083160;28;20397;-61
2022/10/01 12:33:03;;;;;;;22.42;3.28;;;14.50;99.90;;;;;;5084128;28;20490;-63
2022/10/01 12:35:50;;;;;;;12.13;2.65;;;14.80;99.90;;;;;;5083378;28;20051;-63
2022/10/01 12:38:46;;;;;;;13.02;2.90;;;13.90;99.90;;;;;;5082501;28;20169;-66
2022/10/01 12:41:34;;;;;;;18.00;3.10;;;14.00;99.90;;;;;;5065919;28;20929;-65
2022/10/01 12:44:14;;;;;;;17.70;3.92;;;13.90;99.90;;;;;;5080150;28;20611;-65
2022/10/01 12:47:04;;;;;;;30.35;3.53;;;14.30;99.90;;;;;;5060293;28;21128;-65
2022/10/01 12:49:44;;;;;;;12.25;2.40;;;14.30;99.90;;;;;;5081106;28;20451;-64
2022/10/01 12:52:40;;;;;;;10.13;2.50;;;14.70;99.90;;;;;;5081842;28;20460;-65
2022/10/01 12:55:40;;;;;;;13.35;2.78;;;14.40;99.90;;;;;;5067555;28;20066;-65
2022/10/01 12:58:32;;;;;;;6.75;2.42;;;15.30;99.90;;;;;;5082722;28;20402;-64
2022/10/01 13:01:09;;;;;;;10.23;2.45;;;15.10;99.90;;;;;;5082247;28;20515;-64
2022/10/01 13:04:07;;;;;;;10.68;2.33;;;14.60;99.90;;;;;;5085241;28;20527;-64
2022/10/01 13:07:14;;;;;;;10.98;2.20;;;14.30;99.90;;;;;;5032881;28;20106;-64